sensor_id;sensor_type;location;lat;lon;timestamp;pressure;altitude;pressure_sealevel;temperature;humidity
43804;BME280;29430;52.924;-2.388;2023-01-29T00:03:34;100554.19;;;5.27;100.00
43804;BME280;29430;52.924;-2.388;2023-01-29T00:08:26;100546.59;;;5.22;100.00
43804;BME280;29430;52.924;-2.388;2023-01-29T00:13:18;100538.16;;;5.17;100.00
43804;BME280;29430;52.924;-2.388;2023-01-29T00:18:10;100542.03;;;5.14;100.00
43804;BME280;29430;52.924;-2.388;2023-01-29T00:23:02;100545.56;;;5.15;100.00
43804;BME280;29430;52.924;-2.388;2023-01-29T00:27:54;100553.47;;;5.16;100.00
43804;BME280;29430;52.924;-2.388;2023-01-29T00:32:46;100563.00;;;5.11;100.00
43804;BME280;29430;52.924;-2.388;2023-01-29T00:37:38;100560.47;;;5.09;100.00
43804;BME280;29430;52.924;-2.388;2023-01-29T00:42:30;100557.78;;;5.09;100.00
43804;BME280;29430;52.924;-2.388;2023-01-29T00:47:40;100546.72;;;5.12;100.00
43804;BME280;29430;52.924;-2.388;2023-01-29T00:52:32;100530.56;;;5.12;100.00
43804;BME280;29430;52.924;-2.388;2023-01-29T00:57:29;100524.38;;;5.12;100.00
43804;BME280;29430;52.924;-2.388;2023-01-29T01:02:21;100515.78;;;5.08;100.00
43804;BME280;29430;52.924;-2.388;2023-01-29T01:07:32;100506.88;;;5.08;100.00
43804;BME280;29430;52.924;-2.388;2023-01-29T01:12:24;100510.59;;;5.07;100.00
43804;BME280;29430;52.924;-2.388;2023-01-29T01:17:16;100492.91;;;5.04;100.00
43804;BME280;29430;52.924;-2.388;2023-01-29T01:22:08;100494.59;;;5.05;100.00
43804;BME280;29430;52.924;-2.388;2023-01-29T01:27:00;100481.16;;;5.05;100.00
43804;BME280;29430;52.924;-2.388;2023-01-29T01:31:52;100469.22;;;4.99;100.00
43804;BME280;29430;52.924;-2.388;2023-01-29T01:36:44;100472.25;;;5.05;100.00
43804;BME280;29430;52.924;-2.388;2023-01-29T01:41:36;100459.13;;;5.01;100.00
43804;BME280;29430;52.924;-2.388;2023-01-29T01:46:30;100449.72;;;4.97;100.00
43804;BME280;29430;52.924;-2.388;2023-01-29T01:51:23;100459.78;;;4.95;100.00
43804;BME280;29430;52.924;-2.388;2023-01-29T01:56:20;100474.75;;;4.98;100.00
43804;BME280;29430;52.924;-2.388;2023-01-29T02:01:13;100457.63;;;4.99;100.00
43804;BME280;29430;52.924;-2.388;2023-01-29T02:06:06;100455.44;;;5.02;100.00
43804;BME280;29430;52.924;-2.388;2023-01-29T02:11:17;100457.13;;;5.04;100.00
43804;BME280;29430;52.924;-2.388;2023-01-29T02:16:08;100445.34;;;5.05;100.00
43804;BME280;29430;52.924;-2.388;2023-01-29T02:31:39;100444.19;;;5.15;100.00
43804;BME280;29430;52.924;-2.388;2023-01-29T02:41:41;100439.19;;;5.20;100.00
43804;BME280;29430;52.924;-2.388;2023-01-29T02:52:04;100429.44;;;5.19;100.00
43804;BME280;29430;52.924;-2.388;2023-01-29T02:57:06;100413.47;;;5.18;100.00
43804;BME280;29430;52.924;-2.388;2023-01-29T03:02:17;100398.81;;;5.12;100.00
43804;BME280;29430;52.924;-2.388;2023-01-29T03:07:22;100426.41;;;5.14;100.00
43804;BME280;29430;52.924;-2.388;2023-01-29T03:12:38;100422.19;;;5.20;100.00
43804;BME280;29430;52.924;-2.388;2023-01-29T03:17:36;100418.34;;;5.23;100.00
43804;BME280;29430;52.924;-2.388;2023-01-29T03:22:31;100411.09;;;5.23;100.00
43804;BME280;29430;52.924;-2.388;2023-01-29T03:27:30;100408.94;;;5.27;100.00
43804;BME280;29430;52.924;-2.388;2023-01-29T03:32:43;100416.00;;;5.28;100.00
43804;BME280;29430;52.924;-2.388;2023-01-29T03:37:45;100401.72;;;5.27;100.00
43804;BME280;29430;52.924;-2.388;2023-01-29T03:43:04;100396.34;;;5.27;100.00
43804;BME280;29430;52.924;-2.388;2023-01-29T03:53:06;100374.81;;;5.27;100.00
43804;BME280;29430;52.924;-2.388;2023-01-29T03:58:23;100381.03;;;5.28;100.00
43804;BME280;29430;52.924;-2.388;2023-01-29T04:03:47;100366.41;;;5.30;100.00
43804;BME280;29430;52.924;-2.388;2023-01-29T04:08:45;100358.69;;;5.27;100.00
43804;BME280;29430;52.924;-2.388;2023-01-29T04:13:39;100343.19;;;5.29;100.00
43804;BME280;29430;52.924;-2.388;2023-01-29T04:18:31;100342.03;;;5.32;100.00
43804;BME280;29430;52.924;-2.388;2023-01-29T04:23:25;100339.66;;;5.37;100.00
43804;BME280;29430;52.924;-2.388;2023-01-29T04:28:27;100326.38;;;5.35;100.00
43804;BME280;29430;52.924;-2.388;2023-01-29T04:44:17;100306.88;;;5.42;100.00
43804;BME280;29430;52.924;-2.388;2023-01-29T04:49:17;100308.56;;;5.43;100.00
43804;BME280;29430;52.924;-2.388;2023-01-29T04:54:40;100297.81;;;5.43;100.00
43804;BME280;29430;52.924;-2.388;2023-01-29T04:59:41;100292.78;;;5.40;100.00
43804;BME280;29430;52.924;-2.388;2023-01-29T05:04:37;100285.53;;;5.40;100.00
43804;BME280;29430;52.924;-2.388;2023-01-29T05:09:30;100283.19;;;5.37;100.00
43804;BME280;29430;52.924;-2.388;2023-01-29T05:14:23;100277.31;;;5.33;100.00
43804;BME280;29430;52.924;-2.388;2023-01-29T05:19:17;100281.50;;;5.36;100.00
43804;BME280;29430;52.924;-2.388;2023-01-29T05:24:21;100277.63;;;5.38;100.00
43804;BME280;29430;52.924;-2.388;2023-01-29T05:29:13;100275.94;;;5.37;100.00
43804;BME280;29430;52.924;-2.388;2023-01-29T05:34:05;100269.06;;;5.35;100.00
43804;BME280;29430;52.924;-2.388;2023-01-29T05:38:57;100270.06;;;5.34;100.00
43804;BME280;29430;52.924;-2.388;2023-01-29T05:43:48;100255.63;;;5.35;100.00
43804;BME280;29430;52.924;-2.388;2023-01-29T05:48:40;100251.41;;;5.32;100.00
43804;BME280;29430;52.924;-2.388;2023-01-29T05:53:32;100257.28;;;5.36;100.00
43804;BME280;29430;52.924;-2.388;2023-01-29T05:58:24;100249.38;;;5.34;100.00
43804;BME280;29430;52.924;-2.388;2023-01-29T06:03:16;100248.22;;;5.37;100.00
43804;BME280;29430;52.924;-2.388;2023-01-29T06:08:07;100243.66;;;5.37;100.00
43804;BME280;29430;52.924;-2.388;2023-01-29T06:12:59;100240.81;;;5.39;100.00
43804;BME280;29430;52.924;-2.388;2023-01-29T06:17:55;100236.28;;;5.40;100.00
43804;BME280;29430;52.924;-2.388;2023-01-29T06:22:47;100243.31;;;5.41;100.00
43804;BME280;29430;52.924;-2.388;2023-01-29T06:27:39;100240.81;;;5.39;100.00
43804;BME280;29430;52.924;-2.388;2023-01-29T06:32:31;100235.25;;;5.41;100.00
43804;BME280;29430;52.924;-2.388;2023-01-29T06:37:23;100233.41;;;5.41;100.00
43804;BME280;29430;52.924;-2.388;2023-01-29T06:42:14;100242.16;;;5.43;100.00
43804;BME280;29430;52.924;-2.388;2023-01-29T06:47:06;100244.34;;;5.40;100.00
43804;BME280;29430;52.924;-2.388;2023-01-29T06:51:58;100241.66;;;5.40;100.00
43804;BME280;29430;52.924;-2.388;2023-01-29T06:56:50;100241.84;;;5.38;100.00
43804;BME280;29430;52.924;-2.388;2023-01-29T07:01:42;100240.97;;;5.37;100.00
43804;BME280;29430;52.924;-2.388;2023-01-29T07:06:35;100233.41;;;5.33;100.00
43804;BME280;29430;52.924;-2.388;2023-01-29T07:11:26;100231.25;;;5.28;100.00
43804;BME280;29430;52.924;-2.388;2023-01-29T07:16:18;100228.91;;;5.25;100.00
43804;BME280;29430;52.924;-2.388;2023-01-29T07:21:10;100232.44;;;5.26;100.00
43804;BME280;29430;52.924;-2.388;2023-01-29T07:26:04;100223.72;;;5.24;100.00
43804;BME280;29430;52.924;-2.388;2023-01-29T07:30:57;100228.41;;;5.22;100.00
43804;BME280;29430;52.924;-2.388;2023-01-29T07:35:49;100223.19;;;5.20;100.00
43804;BME280;29430;52.924;-2.388;2023-01-29T07:40:40;100234.28;;;5.17;100.00
43804;BME280;29430;52.924;-2.388;2023-01-29T07:45:34;100236.81;;;5.18;100.00
43804;BME280;29430;52.924;-2.388;2023-01-29T07:50:26;100235.66;;;5.13;100.00
43804;BME280;29430;52.924;-2.388;2023-01-29T07:55:18;100233.97;;;5.12;100.00
43804;BME280;29430;52.924;-2.388;2023-01-29T08:00:12;100233.31;;;5.10;100.00
43804;BME280;29430;52.924;-2.388;2023-01-29T08:05:05;100239.50;;;5.10;100.00
43804;BME280;29430;52.924;-2.388;2023-01-29T08:09:57;100238.84;;;5.08;100.00
43804;BME280;29430;52.924;-2.388;2023-01-29T08:14:49;100238.34;;;5.05;100.00
43804;BME280;29430;52.924;-2.388;2023-01-29T08:19:41;100238.66;;;5.01;100.00
43804;BME280;29430;52.924;-2.388;2023-01-29T08:24:32;100241.34;;;5.01;100.00
43804;BME280;29430;52.924;-2.388;2023-01-29T08:29:44;100243.38;;;5.08;100.00
43804;BME280;29430;52.924;-2.388;2023-01-29T08:34:36;100238.69;;;5.10;100.00
43804;BME280;29430;52.924;-2.388;2023-01-29T08:39:27;100239.84;;;5.15;100.00
43804;BME280;29430;52.924;-2.388;2023-01-29T08:44:19;100245.03;;;5.17;100.00
43804;BME280;29430;52.924;-2.388;2023-01-29T08:49:11;100246.22;;;5.23;99.19
43804;BME280;29430;52.924;-2.388;2023-01-29T08:54:03;100239.69;;;5.25;99.11
43804;BME280;29430;52.924;-2.388;2023-01-29T08:58:55;100225.84;;;5.28;97.84
43804;BME280;29430;52.924;-2.388;2023-01-29T09:03:48;100219.13;;;5.32;97.35
43804;BME280;29430;52.924;-2.388;2023-01-29T09:08:41;100223.19;;;5.36;96.97
43804;BME280;29430;52.924;-2.388;2023-01-29T09:13:32;100213.72;;;5.49;96.75
43804;BME280;29430;52.924;-2.388;2023-01-29T09:18:24;100209.84;;;5.60;96.54
43804;BME280;29430;52.924;-2.388;2023-01-29T09:23:16;100211.47;;;5.69;95.36
43804;BME280;29430;52.924;-2.388;2023-01-29T09:28:08;100202.88;;;5.73;94.83
43804;BME280;29430;52.924;-2.388;2023-01-29T09:32:59;100196.97;;;5.78;94.36
43804;BME280;29430;52.924;-2.388;2023-01-29T09:37:51;100198.81;;;5.86;93.69
43804;BME280;29430;52.924;-2.388;2023-01-29T09:42:49;100186.97;;;5.95;93.50
43804;BME280;29430;52.924;-2.388;2023-01-29T09:47:44;100181.69;;;6.10;93.68
43804;BME280;29430;52.924;-2.388;2023-01-29T10:14:03;100183.44;;;6.95;90.12
43804;BME280;29430;52.924;-2.388;2023-01-29T10:19:12;100175.44;;;7.02;90.07
43804;BME280;29430;52.924;-2.388;2023-01-29T10:29:20;100172.13;;;7.15;89.10
43804;BME280;29430;52.924;-2.388;2023-01-29T10:34:18;100177.34;;;7.31;89.41
43804;BME280;29430;52.924;-2.388;2023-01-29T10:39:16;100174.00;;;7.44;89.11
43804;BME280;29430;52.924;-2.388;2023-01-29T10:54:48;100153.34;;;7.51;87.77
43804;BME280;29430;52.924;-2.388;2023-01-29T11:00:01;100148.88;;;7.59;88.32
43804;BME280;29430;52.924;-2.388;2023-01-29T11:04:57;100148.47;;;7.77;87.56
43804;BME280;29430;52.924;-2.388;2023-01-29T11:09:51;100133.81;;;7.86;86.55
43804;BME280;29430;52.924;-2.388;2023-01-29T11:19:53;100102.03;;;8.24;86.56
43804;BME280;29430;52.924;-2.388;2023-01-29T11:29:58;100083.00;;;8.83;84.79
43804;BME280;29430;52.924;-2.388;2023-01-29T11:39:54;100071.13;;;9.60;81.39
43804;BME280;29430;52.924;-2.388;2023-01-29T11:44:45;100069.56;;;9.86;78.16
43804;BME280;29430;52.924;-2.388;2023-01-29T11:49:39;100057.28;;;9.97;77.94
43804;BME280;29430;52.924;-2.388;2023-01-29T11:55:06;100056.91;;;10.13;77.05
43804;BME280;29430;52.924;-2.388;2023-01-29T12:00:12;100048.56;;;10.28;76.21
43804;BME280;29430;52.924;-2.388;2023-01-29T12:05:19;100041.94;;;10.51;75.40
43804;BME280;29430;52.924;-2.388;2023-01-29T12:10:36;100033.78;;;10.51;74.93
43804;BME280;29430;52.924;-2.388;2023-01-29T12:15:28;100023.56;;;10.53;74.19
43804;BME280;29430;52.924;-2.388;2023-01-29T12:20:25;100016.09;;;10.35;74.12
43804;BME280;29430;52.924;-2.388;2023-01-29T12:25:30;100016.03;;;10.28;74.38
43804;BME280;29430;52.924;-2.388;2023-01-29T12:30:49;100005.59;;;10.05;74.62
43804;BME280;29430;52.924;-2.388;2023-01-29T12:36:21;99984.13;;;9.90;75.38
43804;BME280;29430;52.924;-2.388;2023-01-29T12:46:28;99970.16;;;9.73;74.57
43804;BME280;29430;52.924;-2.388;2023-01-29T12:51:33;99970.34;;;9.72;74.95
43804;BME280;29430;52.924;-2.388;2023-01-29T12:56:37;99962.22;;;9.78;76.01
43804;BME280;29430;52.924;-2.388;2023-01-29T13:01:39;99952.41;;;9.71;74.48
43804;BME280;29430;52.924;-2.388;2023-01-29T13:06:41;99935.72;;;9.60;74.56
43804;BME280;29430;52.924;-2.388;2023-01-29T13:11:51;99939.66;;;9.51;75.11
43804;BME280;29430;52.924;-2.388;2023-01-29T13:16:46;99923.00;;;9.47;75.19
43804;BME280;29430;52.924;-2.388;2023-01-29T13:21:40;99913.41;;;9.45;74.03
43804;BME280;29430;52.924;-2.388;2023-01-29T13:26:34;99917.34;;;9.36;74.24
43804;BME280;29430;52.924;-2.388;2023-01-29T13:31:36;99906.72;;;9.27;74.95
43804;BME280;29430;52.924;-2.388;2023-01-29T13:36:29;99887.97;;;9.19;74.67
43804;BME280;29430;52.924;-2.388;2023-01-29T13:41:30;99891.91;;;9.10;74.97
43804;BME280;29430;52.924;-2.388;2023-01-29T13:46:23;99891.25;;;9.08;74.84
43804;BME280;29430;52.924;-2.388;2023-01-29T13:51:19;99884.38;;;8.99;75.56
43804;BME280;29430;52.924;-2.388;2023-01-29T14:06:43;99839.19;;;8.86;78.68
43804;BME280;29430;52.924;-2.388;2023-01-29T14:11:35;99839.38;;;8.77;78.56
43804;BME280;29430;52.924;-2.388;2023-01-29T14:16:32;99828.97;;;8.74;79.23
43804;BME280;29430;52.924;-2.388;2023-01-29T14:21:28;99825.41;;;8.74;79.07
43804;BME280;29430;52.924;-2.388;2023-01-29T14:31:48;99793.34;;;8.71;79.72
43804;BME280;29430;52.924;-2.388;2023-01-29T14:36:42;99797.06;;;8.63;79.93
43804;BME280;29430;52.924;-2.388;2023-01-29T14:41:36;99789.56;;;8.58;80.51
43804;BME280;29430;52.924;-2.388;2023-01-29T14:51:31;99777.72;;;8.53;82.26
43804;BME280;29430;52.924;-2.388;2023-01-29T14:56:36;99765.63;;;8.49;81.50
43804;BME280;29430;52.924;-2.388;2023-01-29T15:01:46;99752.28;;;8.40;82.81
43804;BME280;29430;52.924;-2.388;2023-01-29T15:06:46;99744.78;;;8.36;82.89
43804;BME280;29430;52.924;-2.388;2023-01-29T15:17:31;99758.84;;;8.18;82.64
43804;BME280;29430;52.924;-2.388;2023-01-29T15:22:22;99751.72;;;8.03;83.48
43804;BME280;29430;52.924;-2.388;2023-01-29T15:27:18;99737.72;;;7.93;84.08
43804;BME280;29430;52.924;-2.388;2023-01-29T15:32:17;99723.75;;;7.83;85.05
43804;BME280;29430;52.924;-2.388;2023-01-29T15:37:25;99725.59;;;7.76;85.63
43804;BME280;29430;52.924;-2.388;2023-01-29T15:42:17;99707.25;;;7.64;85.75
43804;BME280;29430;52.924;-2.388;2023-01-29T15:47:14;99716.72;;;7.53;86.33
43804;BME280;29430;52.924;-2.388;2023-01-29T15:52:13;99725.00;;;7.45;86.68
43804;BME280;29430;52.924;-2.388;2023-01-29T15:57:34;99729.88;;;7.35;87.53
43804;BME280;29430;52.924;-2.388;2023-01-29T16:07:27;99707.34;;;7.14;89.74
43804;BME280;29430;52.924;-2.388;2023-01-29T16:12:20;99695.03;;;7.05;89.88
43804;BME280;29430;52.924;-2.388;2023-01-29T16:17:22;99691.63;;;6.96;91.15
43804;BME280;29430;52.924;-2.388;2023-01-29T16:22:15;99676.41;;;6.89;92.17
43804;BME280;29430;52.924;-2.388;2023-01-29T16:27:11;99664.75;;;6.81;92.43
43804;BME280;29430;52.924;-2.388;2023-01-29T16:32:05;99660.16;;;6.75;93.02
43804;BME280;29430;52.924;-2.388;2023-01-29T16:36:59;99694.47;;;6.67;93.33
43804;BME280;29430;52.924;-2.388;2023-01-29T16:47:12;99741.00;;;6.54;94.71
43804;BME280;29430;52.924;-2.388;2023-01-29T16:52:34;99754.84;;;6.51;95.24
43804;BME280;29430;52.924;-2.388;2023-01-29T16:57:29;99740.09;;;6.47;96.39
43804;BME280;29430;52.924;-2.388;2023-01-29T17:02:26;99768.03;;;6.45;96.44
43804;BME280;29430;52.924;-2.388;2023-01-29T17:07:19;99766.00;;;6.48;96.88
43804;BME280;29430;52.924;-2.388;2023-01-29T17:12:18;99795.66;;;6.48;97.00
43804;BME280;29430;52.924;-2.388;2023-01-29T17:17:15;99764.72;;;6.43;97.21
43804;BME280;29430;52.924;-2.388;2023-01-29T17:22:06;99752.00;;;6.37;97.53
43804;BME280;29430;52.924;-2.388;2023-01-29T17:26:59;99756.09;;;6.33;97.51
43804;BME280;29430;52.924;-2.388;2023-01-29T17:31:52;99756.22;;;6.25;98.18
43804;BME280;29430;52.924;-2.388;2023-01-29T17:36:44;99743.31;;;6.20;98.27
43804;BME280;29430;52.924;-2.388;2023-01-29T17:41:36;99763.91;;;6.13;98.43
43804;BME280;29430;52.924;-2.388;2023-01-29T17:46:28;99762.34;;;6.04;98.68
43804;BME280;29430;52.924;-2.388;2023-01-29T17:51:20;99753.44;;;6.03;99.45
43804;BME280;29430;52.924;-2.388;2023-01-29T17:56:17;99737.66;;;6.00;99.67
43804;BME280;29430;52.924;-2.388;2023-01-29T18:01:09;99743.88;;;6.01;99.80
43804;BME280;29430;52.924;-2.388;2023-01-29T18:06:01;99762.53;;;6.02;100.00
43804;BME280;29430;52.924;-2.388;2023-01-29T18:10:53;99741.47;;;6.06;100.00
43804;BME280;29430;52.924;-2.388;2023-01-29T18:15:45;99717.06;;;6.07;100.00
43804;BME280;29430;52.924;-2.388;2023-01-29T18:20:36;99707.75;;;6.10;100.00
43804;BME280;29430;52.924;-2.388;2023-01-29T18:25:29;99675.00;;;6.06;100.00
43804;BME280;29430;52.924;-2.388;2023-01-29T18:30:22;99671.28;;;6.07;100.00
43804;BME280;29430;52.924;-2.388;2023-01-29T18:35:13;99679.44;;;6.14;100.00
43804;BME280;29430;52.924;-2.388;2023-01-29T18:40:06;99686.13;;;6.18;100.00
43804;BME280;29430;52.924;-2.388;2023-01-29T18:44:59;99673.72;;;6.24;100.00
43804;BME280;29430;52.924;-2.388;2023-01-29T18:49:50;99642.06;;;6.26;100.00
43804;BME280;29430;52.924;-2.388;2023-01-29T18:54:42;99636.50;;;6.27;100.00
43804;BME280;29430;52.924;-2.388;2023-01-29T18:59:34;99591.72;;;6.26;100.00
43804;BME280;29430;52.924;-2.388;2023-01-29T19:04:26;99577.44;;;6.26;100.00
43804;BME280;29430;52.924;-2.388;2023-01-29T19:09:18;99578.44;;;6.25;100.00
43804;BME280;29430;52.924;-2.388;2023-01-29T19:14:09;99593.78;;;6.24;100.00
43804;BME280;29430;52.924;-2.388;2023-01-29T19:19:01;99617.81;;;6.26;100.00
43804;BME280;29430;52.924;-2.388;2023-01-29T19:23:53;99621.53;;;6.25;100.00
43804;BME280;29430;52.924;-2.388;2023-01-29T19:28:45;99635.63;;;6.27;100.00
43804;BME280;29430;52.924;-2.388;2023-01-29T19:33:37;99625.06;;;6.25;100.00
43804;BME280;29430;52.924;-2.388;2023-01-29T19:38:29;99626.28;;;6.23;100.00
43804;BME280;29430;52.924;-2.388;2023-01-29T19:43:27;99627.94;;;6.24;100.00
43804;BME280;29430;52.924;-2.388;2023-01-29T19:48:19;99620.91;;;6.23;100.00
43804;BME280;29430;52.924;-2.388;2023-01-29T19:53:12;99606.41;;;6.24;100.00
43804;BME280;29430;52.924;-2.388;2023-01-29T19:58:04;99608.69;;;6.27;100.00
43804;BME280;29430;52.924;-2.388;2023-01-29T20:02:55;99588.44;;;6.31;100.00
43804;BME280;29430;52.924;-2.388;2023-01-29T20:07:47;99589.59;;;6.43;100.00
43804;BME280;29430;52.924;-2.388;2023-01-29T20:12:40;99573.66;;;6.49;100.00
43804;BME280;29430;52.924;-2.388;2023-01-29T20:17:32;99559.22;;;6.56;100.00
43804;BME280;29430;52.924;-2.388;2023-01-29T20:22:25;99571.09;;;6.62;100.00
43804;BME280;29430;52.924;-2.388;2023-01-29T20:27:17;99555.16;;;6.67;100.00
43804;BME280;29430;52.924;-2.388;2023-01-29T20:32:09;99565.16;;;6.73;100.00
43804;BME280;29430;52.924;-2.388;2023-01-29T20:37:01;99561.03;;;6.77;100.00
43804;BME280;29430;52.924;-2.388;2023-01-29T20:41:53;99571.44;;;6.80;100.00
43804;BME280;29430;52.924;-2.388;2023-01-29T20:46:47;99558.56;;;6.82;100.00
43804;BME280;29430;52.924;-2.388;2023-01-29T20:51:39;99558.56;;;6.82;100.00
43804;BME280;29430;52.924;-2.388;2023-01-29T20:56:31;99551.97;;;6.85;100.00
43804;BME280;29430;52.924;-2.388;2023-01-29T21:01:32;99570.44;;;6.88;100.00
43804;BME280;29430;52.924;-2.388;2023-01-29T21:06:24;99577.31;;;6.91;100.00
43804;BME280;29430;52.924;-2.388;2023-01-29T21:11:16;99568.63;;;6.95;100.00
43804;BME280;29430;52.924;-2.388;2023-01-29T21:16:08;99589.41;;;7.02;100.00
43804;BME280;29430;52.924;-2.388;2023-01-29T21:21:02;99584.69;;;7.10;100.00
43804;BME280;29430;52.924;-2.388;2023-01-29T21:26:03;99582.47;;;7.21;100.00
43804;BME280;29430;52.924;-2.388;2023-01-29T21:31:05;99581.28;;;7.30;100.00
43804;BME280;29430;52.924;-2.388;2023-01-29T21:35:58;99578.78;;;7.35;100.00
43804;BME280;29430;52.924;-2.388;2023-01-29T21:40:50;99566.97;;;7.36;100.00
43804;BME280;29430;52.924;-2.388;2023-01-29T21:45:42;99573.47;;;7.48;100.00
43804;BME280;29430;52.924;-2.388;2023-01-29T21:50:34;99573.06;;;7.51;100.00
43804;BME280;29430;52.924;-2.388;2023-01-29T21:55:27;99574.97;;;7.58;100.00
43804;BME280;29430;52.924;-2.388;2023-01-29T22:00:19;99580.16;;;7.59;100.00
43804;BME280;29430;52.924;-2.388;2023-01-29T22:05:11;99578.94;;;7.62;100.00
43804;BME280;29430;52.924;-2.388;2023-01-29T22:10:10;99580.16;;;7.66;100.00
43804;BME280;29430;52.924;-2.388;2023-01-29T22:15:03;99569.16;;;7.67;100.00
43804;BME280;29430;52.924;-2.388;2023-01-29T22:19:55;99559.03;;;7.69;100.00
43804;BME280;29430;52.924;-2.388;2023-01-29T22:24:47;99571.06;;;7.74;100.00
43804;BME280;29430;52.924;-2.388;2023-01-29T22:29:39;99544.72;;;7.76;100.00
43804;BME280;29430;52.924;-2.388;2023-01-29T22:34:31;99548.22;;;7.76;100.00
43804;BME280;29430;52.924;-2.388;2023-01-29T22:39:23;99569.63;;;7.78;100.00
43804;BME280;29430;52.924;-2.388;2023-01-29T22:44:15;99545.31;;;7.78;100.00
43804;BME280;29430;52.924;-2.388;2023-01-29T22:49:07;99551.56;;;7.78;100.00
43804;BME280;29430;52.924;-2.388;2023-01-29T22:53:58;99544.31;;;7.79;100.00
43804;BME280;29430;52.924;-2.388;2023-01-29T22:58:53;99548.84;;;7.78;100.00
43804;BME280;29430;52.924;-2.388;2023-01-29T23:03:46;99556.13;;;7.78;100.00
43804;BME280;29430;52.924;-2.388;2023-01-29T23:08:37;99569.22;;;7.74;100.00
43804;BME280;29430;52.924;-2.388;2023-01-29T23:13:29;99585.63;;;7.73;100.00
43804;BME280;29430;52.924;-2.388;2023-01-29T23:18:21;99581.66;;;7.75;100.00
43804;BME280;29430;52.924;-2.388;2023-01-29T23:23:13;99584.81;;;7.79;100.00
43804;BME280;29430;52.924;-2.388;2023-01-29T23:28:05;99581.25;;;7.78;100.00
43804;BME280;29430;52.924;-2.388;2023-01-29T23:32:56;99590.19;;;7.79;100.00
43804;BME280;29430;52.924;-2.388;2023-01-29T23:37:48;99592.25;;;7.77;100.00
43804;BME280;29430;52.924;-2.388;2023-01-29T23:42:40;99598.50;;;7.77;100.00
43804;BME280;29430;52.924;-2.388;2023-01-29T23:47:32;99597.22;;;7.73;100.00
43804;BME280;29430;52.924;-2.388;2023-01-29T23:52:24;99624.44;;;7.71;100.00
43804;BME280;29430;52.924;-2.388;2023-01-29T23:57:15;99613.63;;;7.65;100.00
